createdAt,value
2018-12-06T00:00:11.863Z,6.50
2018-12-06T00:02:43.904Z,6.50
2018-12-06T00:05:15.839Z,6.50
2018-12-06T00:07:59.411Z,6.50
2018-12-06T00:10:31.118Z,6.40
2018-12-06T00:13:03.500Z,6.40
2018-12-06T00:15:38.305Z,6.40
2018-12-06T00:18:10.163Z,6.40
2018-12-06T00:51:13.490Z,6.30
2018-12-06T00:53:44.974Z,6.30
2018-12-06T00:56:16.366Z,6.20
2018-12-06T00:58:48.604Z,6.20
2018-12-06T01:01:22.447Z,6.20
2018-12-06T01:03:54.112Z,6.20
2018-12-06T01:06:26.551Z,6.20
2018-12-06T01:08:56.316Z,6.20
2018-12-06T01:11:29.276Z,6.20
2018-12-06T01:14:01.792Z,6.20
2018-12-06T01:16:32.097Z,6.20
2018-12-06T01:19:04.577Z,6.30
2018-12-06T01:21:39.461Z,6.20
2018-12-06T01:24:11.755Z,6.20
2018-12-06T01:26:45.693Z,6.30
2018-12-06T01:29:18.005Z,6.30
2018-12-06T01:31:53.948Z,6.30
2018-12-06T01:34:29.900Z,6.40
2018-12-06T01:37:06.412Z,6.40
2018-12-06T01:39:38.650Z,6.40
2018-12-06T01:42:11.297Z,6.40
2018-12-06T01:44:43.831Z,6.40
2018-12-06T01:47:18.478Z,6.40
2018-12-06T01:49:50.438Z,6.30
2018-12-06T01:52:24.766Z,6.40
2018-12-06T01:54:59.602Z,6.40
2018-12-06T01:57:33.926Z,6.40
2018-12-06T02:00:06.424Z,6.50
2018-12-06T02:19:52.856Z,6.50
2018-12-06T02:22:25.321Z,6.50
2018-12-06T02:24:57.371Z,6.60
2018-12-06T02:27:32.300Z,6.50
2018-12-06T02:30:06.433Z,6.50
2018-12-06T02:32:38.885Z,6.50
2018-12-06T02:35:13.493Z,6.50
2018-12-06T02:37:43.529Z,6.50
2018-12-06T02:40:15.324Z,6.50
2018-12-06T02:42:47.852Z,6.40
2018-12-06T02:45:22.405Z,6.40
2018-12-06T02:47:56.752Z,6.40
2018-12-06T02:50:29.258Z,6.40
2018-12-06T02:53:01.314Z,6.50
2018-12-06T02:55:33.581Z,6.50
2018-12-06T03:00:37.778Z,6.50
2018-12-06T03:03:09.461Z,6.50
2018-12-06T03:10:41.999Z,6.50
2018-12-06T03:13:16.056Z,6.60
2018-12-06T03:18:17.272Z,6.60
2018-12-06T03:20:49.335Z,6.70
2018-12-06T04:00:50.640Z,6.70
2018-12-06T04:03:22.295Z,6.80
2018-12-06T04:05:54.625Z,6.80
2018-12-06T04:08:27.101Z,6.80
2018-12-06T04:11:01.761Z,6.80
2018-12-06T04:13:35.790Z,6.80
2018-12-06T04:16:11.072Z,6.90
2018-12-06T04:18:43.712Z,6.90
2018-12-06T04:21:16.012Z,6.90
2018-12-06T04:23:48.180Z,6.90
2018-12-06T04:26:18.458Z,6.90
2018-12-06T04:28:50.793Z,6.90
2018-12-06T04:31:22.950Z,6.90
2018-12-06T04:33:55.524Z,6.80
2018-12-06T04:36:25.552Z,6.80
2018-12-06T04:38:55.673Z,6.80
2018-12-06T04:41:30.249Z,6.80
2018-12-06T04:44:01.940Z,6.80
2018-12-06T04:46:34.074Z,6.80
2018-12-06T04:49:06.214Z,6.90
2018-12-06T04:51:38.335Z,6.90
2018-12-06T04:54:10.652Z,6.90
2018-12-06T04:56:42.756Z,6.90
2018-12-06T04:59:17.423Z,6.90
2018-12-06T05:01:49.609Z,6.90
2018-12-06T05:04:21.857Z,6.90
2018-12-06T05:06:54.511Z,7.00
2018-12-06T05:09:29.324Z,7.00
2018-12-06T05:40:48.522Z,7.40
2018-12-06T05:43:16.883Z,7.50
2018-12-06T05:45:46.026Z,7.50
2018-12-06T05:48:14.468Z,7.50
2018-12-06T05:50:42.808Z,7.60
2018-12-06T05:53:11.163Z,7.70
2018-12-06T05:55:39.535Z,7.80
2018-12-06T05:58:07.883Z,7.80
2018-12-06T06:00:36.226Z,7.80
2018-12-06T06:03:04.575Z,7.80
2018-12-06T06:05:33.063Z,7.90
2018-12-06T06:08:01.411Z,7.90
2018-12-06T06:45:40.403Z,8.70
2018-12-06T06:48:12.784Z,8.70
2018-12-06T06:50:48.948Z,8.70
2018-12-06T06:53:22.265Z,8.80
2018-12-06T06:55:54.457Z,8.80
2018-12-06T06:58:26.231Z,8.80
2018-12-06T07:01:00.872Z,8.80
2018-12-06T07:03:32.368Z,8.80
2018-12-06T07:06:04.566Z,8.90
2018-12-06T07:08:34.740Z,8.90
2018-12-06T07:11:06.934Z,8.90
2018-12-06T07:13:39.441Z,8.90
2018-12-06T07:16:13.878Z,9.00
2018-12-06T07:18:44.344Z,9.00
2018-12-06T07:21:19.072Z,9.10
2018-12-06T07:23:53.187Z,9.10
2018-12-06T07:26:27.235Z,9.10
2018-12-06T07:28:56.855Z,9.20
2018-12-06T07:31:26.984Z,9.20
2018-12-06T07:33:59.069Z,9.20
2018-12-06T07:36:31.390Z,9.20
2018-12-06T07:39:06.413Z,9.20
2018-12-06T07:41:38.120Z,9.20
2018-12-06T08:07:13.783Z,9.40
2018-12-06T08:12:50.201Z,9.40
2018-12-06T08:15:20.040Z,9.40
2018-12-06T08:17:48.436Z,9.50
2018-12-06T08:20:16.791Z,9.50
2018-12-06T08:22:45.191Z,9.50
2018-12-06T08:25:16.732Z,9.50
2018-12-06T08:27:51.111Z,9.50
2018-12-06T08:30:24.994Z,9.60
2018-12-06T08:32:54.675Z,9.60
2018-12-06T08:35:26.640Z,9.60
2018-12-06T08:37:55.054Z,9.60
2018-12-06T08:40:29.465Z,9.60
2018-12-06T08:43:01.227Z,9.70
2018-12-06T08:45:33.324Z,9.60
2018-12-06T08:48:07.403Z,9.60
2018-12-06T08:50:38.799Z,9.60
2018-12-06T08:53:08.573Z,9.60
2018-12-06T08:55:55.243Z,9.60
2018-12-06T08:58:27.383Z,9.60
2018-12-06T09:00:59.355Z,9.60
2018-12-06T09:03:31.198Z,9.60
2018-12-06T09:37:46.144Z,9.90
2018-12-06T09:40:20.494Z,10.00
2018-12-06T09:42:52.628Z,10.00
2018-12-06T09:45:24.349Z,10.10
2018-12-06T09:47:56.554Z,10.10
2018-12-06T09:50:28.238Z,10.10
2018-12-06T09:53:00.461Z,10.10
2018-12-06T09:55:32.611Z,10.10
2018-12-06T09:58:04.801Z,10.20
2018-12-06T10:00:34.555Z,10.20
2018-12-06T10:03:08.855Z,10.20
2018-12-06T10:05:38.491Z,10.30
2018-12-06T10:08:10.760Z,10.30
2018-12-06T10:10:42.873Z,10.30
2018-12-06T10:13:17.268Z,10.40
2018-12-06T10:15:51.719Z,10.40
2018-12-06T10:18:25.645Z,10.40
2018-12-06T10:21:02.428Z,10.50
2018-12-06T10:23:34.143Z,10.40
2018-12-06T10:26:04.088Z,10.40
2018-12-06T10:28:34.114Z,10.50
2018-12-06T10:31:04.143Z,10.50
2018-12-06T10:33:34.288Z,10.60
2018-12-06T10:36:08.343Z,10.60
2018-12-06T10:38:40.035Z,10.50
2018-12-06T10:41:10.147Z,10.60
2018-12-06T10:43:41.946Z,10.50
2018-12-06T10:46:18.370Z,10.50
2018-12-06T10:48:50.298Z,10.60
2018-12-06T10:51:42.004Z,10.60
2018-12-06T10:54:13.906Z,10.60
2018-12-06T10:56:42.976Z,10.60
2018-12-06T10:59:11.383Z,10.50
2018-12-06T11:01:44.937Z,10.50
2018-12-06T11:04:13.305Z,10.60
2018-12-06T11:06:41.842Z,10.60
2018-12-06T11:09:10.301Z,10.60
2018-12-06T11:11:38.680Z,10.60
2018-12-06T11:14:07.146Z,10.60
2018-12-06T11:16:35.482Z,10.70
2018-12-06T11:19:04.103Z,10.70
2018-12-06T11:21:32.513Z,10.80
2018-12-06T11:24:00.925Z,10.90
2018-12-06T11:26:29.517Z,10.90
2018-12-06T11:28:57.936Z,10.90
2018-12-06T11:31:26.419Z,10.90
2018-12-06T11:33:55.026Z,10.90
2018-12-06T11:36:23.402Z,11.00
2018-12-06T11:38:51.873Z,11.00
2018-12-06T11:41:20.210Z,11.10
2018-12-06T11:43:48.562Z,11.20
2018-12-06T11:46:16.943Z,11.20
2018-12-06T11:48:45.317Z,11.30
2018-12-06T11:51:13.735Z,11.50
2018-12-06T11:53:42.128Z,11.60
2018-12-06T11:56:10.707Z,11.70
2018-12-06T11:58:39.051Z,11.90
2018-12-06T12:01:07.534Z,12.10
2018-12-06T12:03:35.923Z,12.40
2018-12-06T12:06:04.417Z,12.50
2018-12-06T12:08:32.783Z,12.60
2018-12-06T12:11:01.138Z,12.40
2018-12-06T12:51:05.491Z,12.70
2018-12-06T12:53:33.969Z,12.50
2018-12-06T12:56:05.605Z,12.70
2018-12-06T12:58:34.000Z,12.70
2018-12-06T13:01:02.351Z,12.80
2018-12-06T13:40:59.631Z,12.40
2018-12-06T13:43:27.985Z,12.40
2018-12-06T13:45:56.364Z,12.50
2018-12-06T13:48:24.905Z,12.40
2018-12-06T13:50:53.321Z,12.50
2018-12-06T13:53:21.663Z,12.50
2018-12-06T13:55:54.096Z,12.50
2018-12-06T13:58:25.474Z,12.50
2018-12-06T14:00:58.702Z,12.40
2018-12-06T14:03:29.064Z,12.40
2018-12-06T14:06:00.890Z,12.40
2018-12-06T14:08:29.255Z,12.40
2018-12-06T14:11:01.205Z,12.40
2018-12-06T14:13:31.165Z,12.30
2018-12-06T14:16:07.115Z,12.30
2018-12-06T14:18:33.778Z,12.40
2018-12-06T14:21:02.246Z,12.30
2018-12-06T14:23:30.620Z,12.30
2018-12-06T14:26:02.028Z,12.30
2018-12-06T14:28:30.403Z,12.30
2018-12-06T14:30:58.835Z,12.30
2018-12-06T14:33:27.505Z,12.20
2018-12-06T14:35:55.909Z,12.20
2018-12-06T14:38:24.296Z,12.20
2018-12-06T14:40:52.858Z,12.20
2018-12-06T14:43:21.341Z,12.20
2018-12-06T14:45:49.838Z,12.20
2018-12-06T14:48:18.516Z,12.20
2018-12-06T14:50:50.883Z,12.20
2018-12-06T14:53:22.840Z,12.20
2018-12-06T14:55:57.037Z,12.20
2018-12-06T14:58:28.728Z,12.20
2018-12-06T15:01:03.147Z,12.20
2018-12-06T15:08:33.623Z,12.10
2018-12-06T15:11:05.816Z,12.10
2018-12-06T15:13:40.301Z,12.10
2018-12-06T15:16:12.203Z,12.10
2018-12-06T15:18:44.448Z,12.10
2018-12-06T15:21:18.411Z,12.00
2018-12-06T15:23:50.325Z,12.10
2018-12-06T15:26:22.553Z,12.10
2018-12-06T15:28:52.640Z,12.10
2018-12-06T15:31:24.740Z,12.10
2018-12-06T15:33:54.854Z,12.10
2018-12-06T15:36:27.009Z,12.00
2018-12-06T15:39:01.570Z,12.00
2018-12-06T15:41:35.664Z,12.00
2018-12-06T15:44:07.507Z,12.00
2018-12-06T15:46:41.999Z,12.10
2018-12-06T15:49:13.846Z,12.10
2018-12-06T15:51:46.289Z,12.00
2018-12-06T16:28:54.833Z,11.90
2018-12-06T16:31:27.108Z,12.00
2018-12-06T16:33:59.393Z,11.90
2018-12-06T16:36:31.119Z,11.90
2018-12-06T16:39:04.787Z,11.90
2018-12-06T16:41:36.450Z,11.90
2018-12-06T16:44:08.716Z,12.00
2018-12-06T16:46:43.064Z,12.00
2018-12-06T16:49:14.548Z,12.00
2018-12-06T16:51:42.987Z,11.90
2018-12-06T16:54:11.530Z,11.90
2018-12-06T16:56:46.067Z,12.00
2018-12-06T16:59:14.666Z,11.90
2018-12-06T17:01:43.343Z,12.00
2018-12-06T17:04:11.818Z,12.00
2018-12-06T17:06:40.216Z,11.90
2018-12-06T17:09:08.703Z,12.10
2018-12-06T17:11:37.359Z,12.10
2018-12-06T17:14:06.001Z,12.10
2018-12-06T17:16:34.467Z,12.00
2018-12-06T17:19:02.848Z,12.00
2018-12-06T17:21:31.291Z,12.00
2018-12-06T17:23:59.748Z,12.00
2018-12-06T17:26:28.308Z,12.00
2018-12-06T17:29:00.391Z,12.00
2018-12-06T17:31:30.352Z,12.00
2018-12-06T17:33:58.841Z,12.00
2018-12-06T17:36:28.085Z,12.00
2018-12-06T17:38:57.648Z,12.00
2018-12-06T17:41:26.197Z,12.10
2018-12-06T17:43:55.729Z,12.10
2018-12-06T17:46:27.421Z,12.00
2018-12-06T17:48:56.424Z,12.00
2018-12-06T17:51:30.531Z,11.90
2018-12-06T17:54:06.125Z,11.90
2018-12-06T17:56:35.975Z,11.80
2018-12-06T18:01:58.795Z,11.80
2018-12-06T18:04:32.770Z,11.70
2018-12-06T18:07:07.476Z,11.70
2018-12-06T18:09:38.391Z,11.70
2018-12-06T18:12:17.593Z,11.70
2018-12-06T18:21:02.647Z,11.70
2018-12-06T18:23:34.835Z,11.70
2018-12-06T18:26:07.518Z,11.70
2018-12-06T18:28:40.520Z,11.70
2018-12-06T18:31:12.839Z,11.60
2018-12-06T18:33:44.984Z,11.70
2018-12-06T18:36:19.894Z,11.70
2018-12-06T18:38:50.767Z,11.70
2018-12-06T18:41:22.415Z,11.80
2018-12-06T18:44:08.319Z,11.80
2018-12-06T19:47:15.180Z,11.90
2018-12-06T21:17:05.584Z,12.00
2018-12-06T21:19:34.164Z,12.00
2018-12-06T21:22:04.963Z,12.00
2018-12-06T21:27:42.519Z,12.00
2018-12-06T21:30:21.796Z,12.00
2018-12-06T21:39:00.469Z,12.10
2018-12-06T21:41:34.663Z,12.10
2018-12-06T21:44:06.663Z,12.10
2018-12-06T21:46:40.819Z,12.10
2018-12-06T21:49:15.983Z,12.10
2018-12-06T21:51:50.920Z,12.10
2018-12-06T21:54:24.985Z,12.10
2018-12-06T21:56:59.203Z,12.10
2018-12-06T21:59:33.444Z,12.10
2018-12-06T23:56:52.424Z,12.30
2018-12-06T23:59:27.580Z,12.20
